Aeroporto :
LOGIN :

Iscrizione | Disclaimer

   EN    FR    IT 

 










Sommario :    VFR   VFR Marginale   IFR   IFR Intensivo   IFR Molto Intensivo
Visibilità : 
Base nubi : 
>= 8 km
>= 3000ft
5 / 8 km
1000 / 3000 ft
1500m / 5 km
500 / 1000 ft
800 / 1500m
200 / 500 ft
< 800m
< 200 ft
Simboli :   Temporali  Nebbia  Neve Forte  Precipitazioni Forti  Vento > 20 kt
SIGMETs :   Varie  Temporali  Ghiacco  Turbolenza  Onda orograficha  Ceneri Vulcaniche






- Altitudine del aeroporto : 526 ft
- Codice IATA : LTN


EGGW - London Luton

ULTIMO METAR :
  • 230220Z 11001KT 4700 BR OVC010 06/06 Q1035

METARs OBSOLETI :
  • 230150Z 08001KT 2500 BR SCT002 OVC010 06/06 Q1035
  • 230120Z 16002KT 2300 BR SCT002 OVC008 06/06 Q1035
  • 230050Z 13002KT 3800 BR OVC003 06/06 Q1035
  • 230020Z 13002KT 1500 BR OVC006 06/06 Q1035
  • 222350Z 13002KT 2100 BR OVC004 06/06 Q1036

TAF AMD TAF EGGW
Valido dal 23 a 02 ore il 24 a 00 ore UTC


230210Z 2302/2324 03004KT 3000 BR FEW002 BKN010
TEMPO 2302/2312 1200 BKN002
PROB40
TEMPO 2302/2312 0300 FG BKN001
BECMG 2312/2315 6000 NSW
TEMPO 2315/2324 2000 BR BKN002
ATIS : +44 1582 395 204



MetMap, La meteo Aeronautica in un colpo d'occhio ! - Copyright ORBIFLY Dicembre 2007 - Disclaimer

ORBIFLY MET'MAP TEAM :

Programmazione e sviluppo : Alexandra Zaïnal
Concezione : Baudouin d'Aumeries
Aiuto per la programmazione : Marc-Olivier Méhu
Supporto tecnico e logistico : Manuel Goepfert
Aiuto per la traduzione : Arnaldo La Scala

Contatto : metmap@orbifly.com




FONTI E CREDITI :

   NOAA